sensor_id;sensor_type;location;lat;lon;timestamp;P1;durP1;ratioP1;P2;durP2;ratioP2
74793;SDS011;63320;50.768;6.724;2023-07-29T00:01:40;4.25;;;1.40;;
74793;SDS011;63320;50.768;6.724;2023-07-29T00:04:06;4.00;;;1.65;;
74793;SDS011;63320;50.768;6.724;2023-07-29T00:06:31;3.00;;;1.13;;
74793;SDS011;63320;50.768;6.724;2023-07-29T00:08:58;4.35;;;1.27;;
74793;SDS011;63320;50.768;6.724;2023-07-29T00:11:23;3.03;;;1.45;;
74793;SDS011;63320;50.768;6.724;2023-07-29T00:13:48;4.88;;;1.20;;
74793;SDS011;63320;50.768;6.724;2023-07-29T00:16:14;4.05;;;1.40;;
74793;SDS011;63320;50.768;6.724;2023-07-29T00:18:39;3.92;;;1.33;;
74793;SDS011;63320;50.768;6.724;2023-07-29T00:21:04;3.85;;;1.38;;
74793;SDS011;63320;50.768;6.724;2023-07-29T00:23:30;5.80;;;1.52;;
74793;SDS011;63320;50.768;6.724;2023-07-29T00:25:56;3.00;;;1.30;;
74793;SDS011;63320;50.768;6.724;2023-07-29T00:28:22;3.83;;;1.35;;
74793;SDS011;63320;50.768;6.724;2023-07-29T00:30:47;2.95;;;1.10;;
74793;SDS011;63320;50.768;6.724;2023-07-29T00:33:12;2.60;;;1.23;;
74793;SDS011;63320;50.768;6.724;2023-07-29T00:35:38;3.17;;;1.17;;
74793;SDS011;63320;50.768;6.724;2023-07-29T00:38:03;3.78;;;1.30;;
74793;SDS011;63320;50.768;6.724;2023-07-29T00:40:29;3.80;;;1.25;;
74793;SDS011;63320;50.768;6.724;2023-07-29T00:42:55;5.07;;;1.23;;
74793;SDS011;63320;50.768;6.724;2023-07-29T00:45:21;2.47;;;1.30;;
74793;SDS011;63320;50.768;6.724;2023-07-29T00:47:49;3.80;;;1.23;;
74793;SDS011;63320;50.768;6.724;2023-07-29T00:50:15;3.95;;;1.40;;
74793;SDS011;63320;50.768;6.724;2023-07-29T00:52:41;4.50;;;1.63;;
74793;SDS011;63320;50.768;6.724;2023-07-29T00:55:06;4.60;;;1.40;;
74793;SDS011;63320;50.768;6.724;2023-07-29T00:57:33;4.70;;;1.40;;
74793;SDS011;63320;50.768;6.724;2023-07-29T01:00:00;3.22;;;1.35;;
74793;SDS011;63320;50.768;6.724;2023-07-29T01:02:26;2.08;;;1.00;;
74793;SDS011;63320;50.768;6.724;2023-07-29T01:04:52;3.47;;;1.20;;
74793;SDS011;63320;50.768;6.724;2023-07-29T01:07:19;2.97;;;1.20;;
74793;SDS011;63320;50.768;6.724;2023-07-29T01:09:51;3.80;;;1.10;;
74793;SDS011;63320;50.768;6.724;2023-07-29T01:12:22;1.77;;;0.95;;
74793;SDS011;63320;50.768;6.724;2023-07-29T01:14:54;4.28;;;1.20;;
74793;SDS011;63320;50.768;6.724;2023-07-29T01:17:27;5.35;;;1.20;;
74793;SDS011;63320;50.768;6.724;2023-07-29T01:19:59;2.15;;;1.13;;
74793;SDS011;63320;50.768;6.724;2023-07-29T01:22:26;3.15;;;1.17;;
74793;SDS011;63320;50.768;6.724;2023-07-29T01:24:54;2.17;;;1.00;;
74793;SDS011;63320;50.768;6.724;2023-07-29T01:27:19;3.13;;;1.10;;
74793;SDS011;63320;50.768;6.724;2023-07-29T01:29:44;2.75;;;1.10;;
74793;SDS011;63320;50.768;6.724;2023-07-29T01:32:10;3.53;;;1.23;;
74793;SDS011;63320;50.768;6.724;2023-07-29T01:34:41;3.15;;;1.00;;
74793;SDS011;63320;50.768;6.724;2023-07-29T01:37:10;1.88;;;1.02;;
74793;SDS011;63320;50.768;6.724;2023-07-29T01:39:39;5.15;;;1.20;;
74793;SDS011;63320;50.768;6.724;2023-07-29T01:42:08;3.00;;;1.20;;
74793;SDS011;63320;50.768;6.724;2023-07-29T01:44:33;7.15;;;1.45;;
74793;SDS011;63320;50.768;6.724;2023-07-29T01:47:00;7.00;;;1.50;;
74793;SDS011;63320;50.768;6.724;2023-07-29T01:49:25;3.28;;;1.23;;
74793;SDS011;63320;50.768;6.724;2023-07-29T01:51:51;4.18;;;1.40;;
74793;SDS011;63320;50.768;6.724;2023-07-29T01:54:16;4.30;;;1.70;;
74793;SDS011;63320;50.768;6.724;2023-07-29T01:56:41;3.60;;;1.50;;
74793;SDS011;63320;50.768;6.724;2023-07-29T01:59:08;4.25;;;1.45;;
74793;SDS011;63320;50.768;6.724;2023-07-29T02:01:33;4.70;;;1.67;;
74793;SDS011;63320;50.768;6.724;2023-07-29T02:03:59;5.60;;;1.90;;
74793;SDS011;63320;50.768;6.724;2023-07-29T02:06:24;4.78;;;1.60;;
74793;SDS011;63320;50.768;6.724;2023-07-29T02:08:50;4.35;;;1.50;;
74793;SDS011;63320;50.768;6.724;2023-07-29T02:11:16;4.65;;;1.70;;
74793;SDS011;63320;50.768;6.724;2023-07-29T02:13:41;4.93;;;1.60;;
74793;SDS011;63320;50.768;6.724;2023-07-29T02:16:08;4.05;;;1.83;;
74793;SDS011;63320;50.768;6.724;2023-07-29T02:18:33;5.68;;;2.00;;
74793;SDS011;63320;50.768;6.724;2023-07-29T02:20:58;4.90;;;2.10;;
74793;SDS011;63320;50.768;6.724;2023-07-29T02:23:24;6.63;;;1.95;;
74793;SDS011;63320;50.768;6.724;2023-07-29T02:25:49;5.15;;;2.10;;
74793;SDS011;63320;50.768;6.724;2023-07-29T02:28:15;5.60;;;2.10;;
74793;SDS011;63320;50.768;6.724;2023-07-29T02:30:41;4.85;;;2.00;;
74793;SDS011;63320;50.768;6.724;2023-07-29T02:33:08;4.53;;;2.00;;
74793;SDS011;63320;50.768;6.724;2023-07-29T02:35:33;6.22;;;2.00;;
74793;SDS011;63320;50.768;6.724;2023-07-29T02:37:58;4.38;;;1.60;;
74793;SDS011;63320;50.768;6.724;2023-07-29T02:40:24;3.83;;;1.60;;
74793;SDS011;63320;50.768;6.724;2023-07-29T02:42:49;3.00;;;1.30;;
74793;SDS011;63320;50.768;6.724;2023-07-29T02:45:14;3.38;;;1.10;;
74793;SDS011;63320;50.768;6.724;2023-07-29T02:47:40;3.78;;;1.30;;
74793;SDS011;63320;50.768;6.724;2023-07-29T02:50:07;2.88;;;1.10;;
74793;SDS011;63320;50.768;6.724;2023-07-29T02:52:32;3.53;;;1.27;;
74793;SDS011;63320;50.768;6.724;2023-07-29T02:54:58;3.67;;;1.30;;
74793;SDS011;63320;50.768;6.724;2023-07-29T02:57:23;3.72;;;1.13;;
74793;SDS011;63320;50.768;6.724;2023-07-29T02:59:48;4.15;;;1.15;;
74793;SDS011;63320;50.768;6.724;2023-07-29T03:02:14;4.00;;;1.10;;
74793;SDS011;63320;50.768;6.724;2023-07-29T03:04:39;3.75;;;1.20;;
74793;SDS011;63320;50.768;6.724;2023-07-29T03:07:06;3.63;;;1.10;;
74793;SDS011;63320;50.768;6.724;2023-07-29T03:09:31;3.40;;;0.98;;
74793;SDS011;63320;50.768;6.724;2023-07-29T03:11:56;3.10;;;1.10;;
74793;SDS011;63320;50.768;6.724;2023-07-29T03:14:21;3.25;;;1.20;;
74793;SDS011;63320;50.768;6.724;2023-07-29T03:16:47;3.10;;;1.20;;
74793;SDS011;63320;50.768;6.724;2023-07-29T03:19:12;3.15;;;1.25;;
74793;SDS011;63320;50.768;6.724;2023-07-29T03:21:37;4.80;;;1.10;;
74793;SDS011;63320;50.768;6.724;2023-07-29T03:24:04;2.40;;;1.13;;
74793;SDS011;63320;50.768;6.724;2023-07-29T03:26:30;4.85;;;1.30;;
74793;SDS011;63320;50.768;6.724;2023-07-29T03:28:55;3.05;;;1.00;;
74793;SDS011;63320;50.768;6.724;2023-07-29T03:31:20;4.30;;;1.20;;
74793;SDS011;63320;50.768;6.724;2023-07-29T03:33:45;3.63;;;1.10;;
74793;SDS011;63320;50.768;6.724;2023-07-29T03:36:11;3.47;;;1.38;;
74793;SDS011;63320;50.768;6.724;2023-07-29T03:38:36;4.65;;;1.50;;
74793;SDS011;63320;50.768;6.724;2023-07-29T03:41:03;2.78;;;1.13;;
74793;SDS011;63320;50.768;6.724;2023-07-29T03:43:28;2.30;;;1.00;;
74793;SDS011;63320;50.768;6.724;2023-07-29T03:45:54;3.78;;;1.20;;
74793;SDS011;63320;50.768;6.724;2023-07-29T03:48:19;3.35;;;1.35;;
74793;SDS011;63320;50.768;6.724;2023-07-29T03:50:45;2.50;;;1.10;;
74793;SDS011;63320;50.768;6.724;2023-07-29T03:53:10;2.47;;;1.17;;
74793;SDS011;63320;50.768;6.724;2023-07-29T03:55:35;3.47;;;1.40;;
74793;SDS011;63320;50.768;6.724;2023-07-29T03:58:02;4.78;;;1.20;;
74793;SDS011;63320;50.768;6.724;2023-07-29T04:00:27;3.00;;;1.38;;
74793;SDS011;63320;50.768;6.724;2023-07-29T04:02:53;2.90;;;1.15;;
74793;SDS011;63320;50.768;6.724;2023-07-29T04:05:18;3.70;;;1.10;;
74793;SDS011;63320;50.768;6.724;2023-07-29T04:07:44;3.65;;;1.13;;
74793;SDS011;63320;50.768;6.724;2023-07-29T04:10:09;3.88;;;1.10;;
74793;SDS011;63320;50.768;6.724;2023-07-29T04:12:35;3.13;;;1.30;;
74793;SDS011;63320;50.768;6.724;2023-07-29T04:15:02;4.65;;;1.23;;
74793;SDS011;63320;50.768;6.724;2023-07-29T04:17:28;4.53;;;1.10;;
74793;SDS011;63320;50.768;6.724;2023-07-29T04:19:53;2.92;;;1.10;;
74793;SDS011;63320;50.768;6.724;2023-07-29T04:22:18;4.07;;;1.10;;
74793;SDS011;63320;50.768;6.724;2023-07-29T04:24:44;2.92;;;0.98;;
74793;SDS011;63320;50.768;6.724;2023-07-29T04:27:09;4.43;;;1.00;;
74793;SDS011;63320;50.768;6.724;2023-07-29T04:29:35;3.47;;;1.00;;
74793;SDS011;63320;50.768;6.724;2023-07-29T04:32:02;2.83;;;1.00;;
74793;SDS011;63320;50.768;6.724;2023-07-29T04:34:27;2.80;;;1.05;;
74793;SDS011;63320;50.768;6.724;2023-07-29T04:36:53;2.83;;;1.00;;
74793;SDS011;63320;50.768;6.724;2023-07-29T04:39:18;3.38;;;1.25;;
74793;SDS011;63320;50.768;6.724;2023-07-29T04:41:43;3.80;;;1.00;;
74793;SDS011;63320;50.768;6.724;2023-07-29T04:44:09;4.60;;;1.15;;
74793;SDS011;63320;50.768;6.724;2023-07-29T04:46:35;2.45;;;1.20;;
74793;SDS011;63320;50.768;6.724;2023-07-29T04:49:02;3.22;;;1.15;;
74793;SDS011;63320;50.768;6.724;2023-07-29T04:51:28;4.22;;;1.17;;
74793;SDS011;63320;50.768;6.724;2023-07-29T04:53:53;4.55;;;1.48;;
74793;SDS011;63320;50.768;6.724;2023-07-29T04:56:19;3.50;;;1.30;;
74793;SDS011;63320;50.768;6.724;2023-07-29T04:58:44;4.18;;;1.35;;
74793;SDS011;63320;50.768;6.724;2023-07-29T05:01:10;5.15;;;1.38;;
74793;SDS011;63320;50.768;6.724;2023-07-29T05:06:17;4.28;;;1.25;;
74793;SDS011;63320;50.768;6.724;2023-07-29T05:08:43;3.65;;;1.50;;
74793;SDS011;63320;50.768;6.724;2023-07-29T05:11:08;4.45;;;1.20;;
74793;SDS011;63320;50.768;6.724;2023-07-29T05:13:33;5.22;;;1.80;;
74793;SDS011;63320;50.768;6.724;2023-07-29T05:15:59;7.53;;;1.80;;
74793;SDS011;63320;50.768;6.724;2023-07-29T05:18:24;3.20;;;1.30;;
74793;SDS011;63320;50.768;6.724;2023-07-29T05:20:49;7.95;;;1.70;;
74793;SDS011;63320;50.768;6.724;2023-07-29T05:23:16;6.07;;;1.73;;
74793;SDS011;63320;50.768;6.724;2023-07-29T05:25:41;6.95;;;1.80;;
74793;SDS011;63320;50.768;6.724;2023-07-29T05:28:07;4.10;;;1.70;;
74793;SDS011;63320;50.768;6.724;2023-07-29T05:30:32;7.30;;;1.60;;
74793;SDS011;63320;50.768;6.724;2023-07-29T05:32:58;4.63;;;1.60;;
74793;SDS011;63320;50.768;6.724;2023-07-29T05:35:24;5.63;;;1.67;;
74793;SDS011;63320;50.768;6.724;2023-07-29T05:37:49;4.07;;;1.50;;
74793;SDS011;63320;50.768;6.724;2023-07-29T05:40:16;4.13;;;1.85;;
74793;SDS011;63320;50.768;6.724;2023-07-29T05:42:44;6.53;;;1.50;;
74793;SDS011;63320;50.768;6.724;2023-07-29T05:45:10;5.85;;;1.75;;
74793;SDS011;63320;50.768;6.724;2023-07-29T05:47:35;4.13;;;1.60;;
74793;SDS011;63320;50.768;6.724;2023-07-29T05:50:01;5.07;;;1.83;;
74793;SDS011;63320;50.768;6.724;2023-07-29T05:52:26;5.07;;;1.88;;
74793;SDS011;63320;50.768;6.724;2023-07-29T05:54:51;5.60;;;1.85;;
74793;SDS011;63320;50.768;6.724;2023-07-29T05:57:18;4.93;;;1.95;;
74793;SDS011;63320;50.768;6.724;2023-07-29T05:59:43;6.43;;;1.70;;
74793;SDS011;63320;50.768;6.724;2023-07-29T06:02:09;6.35;;;1.90;;
74793;SDS011;63320;50.768;6.724;2023-07-29T06:04:34;6.50;;;1.70;;
74793;SDS011;63320;50.768;6.724;2023-07-29T06:06:59;5.90;;;2.20;;
74793;SDS011;63320;50.768;6.724;2023-07-29T06:09:25;8.05;;;2.08;;
74793;SDS011;63320;50.768;6.724;2023-07-29T06:11:50;8.05;;;2.15;;
74793;SDS011;63320;50.768;6.724;2023-07-29T06:14:17;4.70;;;1.70;;
74793;SDS011;63320;50.768;6.724;2023-07-29T06:16:42;5.28;;;2.20;;
74793;SDS011;63320;50.768;6.724;2023-07-29T06:19:07;4.78;;;2.55;;
74793;SDS011;63320;50.768;6.724;2023-07-29T06:21:33;4.43;;;2.70;;
74793;SDS011;63320;50.768;6.724;2023-07-29T06:23:59;6.35;;;2.67;;
74793;SDS011;63320;50.768;6.724;2023-07-29T06:26:24;6.60;;;2.65;;
74793;SDS011;63320;50.768;6.724;2023-07-29T06:28:49;5.65;;;2.40;;
74793;SDS011;63320;50.768;6.724;2023-07-29T06:31:16;7.78;;;2.67;;
74793;SDS011;63320;50.768;6.724;2023-07-29T06:33:41;6.78;;;2.40;;
74793;SDS011;63320;50.768;6.724;2023-07-29T06:36:07;5.47;;;2.53;;
74793;SDS011;63320;50.768;6.724;2023-07-29T06:38:32;6.95;;;2.60;;
74793;SDS011;63320;50.768;6.724;2023-07-29T06:40:57;4.97;;;2.67;;
74793;SDS011;63320;50.768;6.724;2023-07-29T06:43:23;4.43;;;2.55;;
74793;SDS011;63320;50.768;6.724;2023-07-29T06:45:48;8.10;;;3.08;;
74793;SDS011;63320;50.768;6.724;2023-07-29T06:48:15;5.97;;;2.35;;
74793;SDS011;63320;50.768;6.724;2023-07-29T06:50:40;5.10;;;2.65;;
74793;SDS011;63320;50.768;6.724;2023-07-29T06:53:05;5.57;;;2.63;;
74793;SDS011;63320;50.768;6.724;2023-07-29T06:55:31;6.38;;;2.60;;
74793;SDS011;63320;50.768;6.724;2023-07-29T06:57:56;4.40;;;2.22;;
74793;SDS011;63320;50.768;6.724;2023-07-29T07:00:22;6.97;;;2.45;;
74793;SDS011;63320;50.768;6.724;2023-07-29T07:02:47;6.28;;;2.40;;
74793;SDS011;63320;50.768;6.724;2023-07-29T07:05:14;5.00;;;2.28;;
74793;SDS011;63320;50.768;6.724;2023-07-29T07:07:39;5.38;;;2.42;;
74793;SDS011;63320;50.768;6.724;2023-07-29T07:10:05;9.48;;;2.92;;
74793;SDS011;63320;50.768;6.724;2023-07-29T07:12:31;4.43;;;2.28;;
74793;SDS011;63320;50.768;6.724;2023-07-29T07:14:56;4.57;;;2.00;;
74793;SDS011;63320;50.768;6.724;2023-07-29T07:17:21;3.83;;;1.80;;
74793;SDS011;63320;50.768;6.724;2023-07-29T07:19:47;5.32;;;1.90;;
74793;SDS011;63320;50.768;6.724;2023-07-29T07:22:13;5.07;;;1.95;;
74793;SDS011;63320;50.768;6.724;2023-07-29T07:24:39;4.88;;;1.70;;
74793;SDS011;63320;50.768;6.724;2023-07-29T07:27:04;3.65;;;1.52;;
74793;SDS011;63320;50.768;6.724;2023-07-29T07:29:30;4.28;;;1.45;;
74793;SDS011;63320;50.768;6.724;2023-07-29T07:31:55;4.20;;;1.50;;
74793;SDS011;63320;50.768;6.724;2023-07-29T07:34:21;3.85;;;1.60;;
74793;SDS011;63320;50.768;6.724;2023-07-29T07:36:47;4.70;;;1.73;;
74793;SDS011;63320;50.768;6.724;2023-07-29T07:39:13;3.45;;;1.35;;
74793;SDS011;63320;50.768;6.724;2023-07-29T07:41:39;5.72;;;1.70;;
74793;SDS011;63320;50.768;6.724;2023-07-29T07:44:05;4.35;;;1.40;;
74793;SDS011;63320;50.768;6.724;2023-07-29T07:46:30;6.28;;;1.70;;
74793;SDS011;63320;50.768;6.724;2023-07-29T07:48:56;3.55;;;1.23;;
74793;SDS011;63320;50.768;6.724;2023-07-29T07:51:21;4.13;;;1.50;;
74793;SDS011;63320;50.768;6.724;2023-07-29T07:53:46;3.65;;;1.70;;
74793;SDS011;63320;50.768;6.724;2023-07-29T07:56:13;5.47;;;1.50;;
74793;SDS011;63320;50.768;6.724;2023-07-29T07:58:38;4.40;;;1.33;;
74793;SDS011;63320;50.768;6.724;2023-07-29T08:01:04;3.65;;;1.40;;
74793;SDS011;63320;50.768;6.724;2023-07-29T08:03:30;3.53;;;1.20;;
74793;SDS011;63320;50.768;6.724;2023-07-29T08:05:56;3.50;;;1.23;;
74793;SDS011;63320;50.768;6.724;2023-07-29T08:08:21;2.75;;;1.15;;
74793;SDS011;63320;50.768;6.724;2023-07-29T08:10:46;7.25;;;1.55;;
74793;SDS011;63320;50.768;6.724;2023-07-29T08:13:13;4.07;;;1.40;;
74793;SDS011;63320;50.768;6.724;2023-07-29T08:15:38;3.33;;;1.30;;
74793;SDS011;63320;50.768;6.724;2023-07-29T08:18:04;6.07;;;1.02;;
74793;SDS011;63320;50.768;6.724;2023-07-29T08:20:29;4.72;;;1.10;;
74793;SDS011;63320;50.768;6.724;2023-07-29T08:22:54;3.30;;;1.20;;
74793;SDS011;63320;50.768;6.724;2023-07-29T08:25:20;4.82;;;1.25;;
74793;SDS011;63320;50.768;6.724;2023-07-29T08:27:45;3.90;;;1.30;;
74793;SDS011;63320;50.768;6.724;2023-07-29T08:30:12;2.85;;;1.15;;
74793;SDS011;63320;50.768;6.724;2023-07-29T08:32:37;3.08;;;1.10;;
74793;SDS011;63320;50.768;6.724;2023-07-29T08:35:03;2.35;;;1.10;;
74793;SDS011;63320;50.768;6.724;2023-07-29T08:37:28;2.55;;;1.05;;
74793;SDS011;63320;50.768;6.724;2023-07-29T08:39:54;2.97;;;1.27;;
74793;SDS011;63320;50.768;6.724;2023-07-29T08:42:19;3.17;;;1.20;;
74793;SDS011;63320;50.768;6.724;2023-07-29T08:44:45;2.72;;;1.13;;
74793;SDS011;63320;50.768;6.724;2023-07-29T08:47:15;3.50;;;1.23;;
74793;SDS011;63320;50.768;6.724;2023-07-29T08:49:41;2.50;;;1.20;;
74793;SDS011;63320;50.768;6.724;2023-07-29T08:52:06;3.85;;;1.20;;
74793;SDS011;63320;50.768;6.724;2023-07-29T08:54:32;2.30;;;0.90;;
74793;SDS011;63320;50.768;6.724;2023-07-29T08:56:57;2.13;;;0.98;;
74793;SDS011;63320;50.768;6.724;2023-07-29T08:59:23;2.85;;;1.08;;
74793;SDS011;63320;50.768;6.724;2023-07-29T09:01:50;4.50;;;1.25;;
74793;SDS011;63320;50.768;6.724;2023-07-29T09:04:18;3.47;;;1.20;;
74793;SDS011;63320;50.768;6.724;2023-07-29T09:06:43;3.10;;;1.13;;
74793;SDS011;63320;50.768;6.724;2023-07-29T09:09:11;3.15;;;1.23;;
74793;SDS011;63320;50.768;6.724;2023-07-29T09:11:37;1.95;;;1.00;;
74793;SDS011;63320;50.768;6.724;2023-07-29T09:14:02;3.10;;;1.00;;
74793;SDS011;63320;50.768;6.724;2023-07-29T09:16:27;2.15;;;1.00;;
74793;SDS011;63320;50.768;6.724;2023-07-29T09:18:53;3.30;;;1.40;;
74793;SDS011;63320;50.768;6.724;2023-07-29T09:21:23;3.20;;;1.00;;
74793;SDS011;63320;50.768;6.724;2023-07-29T09:23:50;4.88;;;1.30;;
74793;SDS011;63320;50.768;6.724;2023-07-29T09:26:18;2.80;;;1.00;;
74793;SDS011;63320;50.768;6.724;2023-07-29T09:28:51;2.22;;;1.08;;
74793;SDS011;63320;50.768;6.724;2023-07-29T09:33:44;2.95;;;1.00;;
74793;SDS011;63320;50.768;6.724;2023-07-29T09:36:09;2.47;;;1.00;;
74793;SDS011;63320;50.768;6.724;2023-07-29T09:38:36;3.17;;;1.20;;
74793;SDS011;63320;50.768;6.724;2023-07-29T09:41:02;3.00;;;1.13;;
74793;SDS011;63320;50.768;6.724;2023-07-29T09:43:28;4.25;;;1.20;;
74793;SDS011;63320;50.768;6.724;2023-07-29T09:45:55;4.20;;;1.20;;
74793;SDS011;63320;50.768;6.724;2023-07-29T09:48:22;3.92;;;1.30;;
74793;SDS011;63320;50.768;6.724;2023-07-29T09:50:47;5.05;;;1.30;;
74793;SDS011;63320;50.768;6.724;2023-07-29T09:53:13;3.30;;;1.20;;
74793;SDS011;63320;50.768;6.724;2023-07-29T09:55:40;2.17;;;1.05;;
74793;SDS011;63320;50.768;6.724;2023-07-29T09:58:11;3.28;;;1.05;;
74793;SDS011;63320;50.768;6.724;2023-07-29T10:00:36;3.03;;;1.30;;
74793;SDS011;63320;50.768;6.724;2023-07-29T10:03:02;3.20;;;1.30;;
74793;SDS011;63320;50.768;6.724;2023-07-29T10:05:28;3.17;;;1.20;;
74793;SDS011;63320;50.768;6.724;2023-07-29T10:07:54;2.75;;;1.13;;
74793;SDS011;63320;50.768;6.724;2023-07-29T10:10:21;2.72;;;1.10;;
74793;SDS011;63320;50.768;6.724;2023-07-29T10:12:48;3.55;;;1.20;;
74793;SDS011;63320;50.768;6.724;2023-07-29T10:15:15;4.07;;;1.33;;
74793;SDS011;63320;50.768;6.724;2023-07-29T10:17:40;2.67;;;1.05;;
74793;SDS011;63320;50.768;6.724;2023-07-29T10:20:06;2.95;;;1.30;;
74793;SDS011;63320;50.768;6.724;2023-07-29T10:22:33;2.88;;;1.08;;
74793;SDS011;63320;50.768;6.724;2023-07-29T10:25:02;3.17;;;1.10;;
74793;SDS011;63320;50.768;6.724;2023-07-29T10:27:28;2.80;;;1.10;;
74793;SDS011;63320;50.768;6.724;2023-07-29T10:29:56;3.20;;;1.00;;
74793;SDS011;63320;50.768;6.724;2023-07-29T10:32:22;4.30;;;1.40;;
74793;SDS011;63320;50.768;6.724;2023-07-29T10:34:50;4.22;;;1.30;;
74793;SDS011;63320;50.768;6.724;2023-07-29T10:37:15;4.28;;;1.42;;
74793;SDS011;63320;50.768;6.724;2023-07-29T10:39:45;3.10;;;1.50;;
74793;SDS011;63320;50.768;6.724;2023-07-29T10:42:17;3.78;;;1.60;;
74793;SDS011;63320;50.768;6.724;2023-07-29T10:44:46;5.57;;;1.80;;
74793;SDS011;63320;50.768;6.724;2023-07-29T10:47:13;8.65;;;1.90;;
74793;SDS011;63320;50.768;6.724;2023-07-29T10:49:39;5.45;;;1.88;;
74793;SDS011;63320;50.768;6.724;2023-07-29T10:52:05;3.83;;;1.42;;
74793;SDS011;63320;50.768;6.724;2023-07-29T10:54:30;16.45;;;2.17;;
74793;SDS011;63320;50.768;6.724;2023-07-29T10:57:07;6.18;;;1.40;;
74793;SDS011;63320;50.768;6.724;2023-07-29T10:59:32;3.88;;;1.63;;
74793;SDS011;63320;50.768;6.724;2023-07-29T11:01:58;4.22;;;1.70;;
74793;SDS011;63320;50.768;6.724;2023-07-29T11:04:25;6.13;;;1.52;;
74793;SDS011;63320;50.768;6.724;2023-07-29T11:07:02;5.82;;;1.63;;
74793;SDS011;63320;50.768;6.724;2023-07-29T11:09:51;5.93;;;1.67;;
74793;SDS011;63320;50.768;6.724;2023-07-29T11:12:37;4.07;;;1.60;;
74793;SDS011;63320;50.768;6.724;2023-07-29T11:15:14;9.73;;;2.10;;
74793;SDS011;63320;50.768;6.724;2023-07-29T11:17:42;7.10;;;1.60;;
74793;SDS011;63320;50.768;6.724;2023-07-29T11:20:09;4.18;;;1.65;;
74793;SDS011;63320;50.768;6.724;2023-07-29T11:22:36;2.70;;;1.10;;
74793;SDS011;63320;50.768;6.724;2023-07-29T11:25:02;3.88;;;1.50;;
74793;SDS011;63320;50.768;6.724;2023-07-29T11:27:27;3.00;;;1.35;;
74793;SDS011;63320;50.768;6.724;2023-07-29T11:29:56;3.50;;;1.58;;
74793;SDS011;63320;50.768;6.724;2023-07-29T11:32:21;3.38;;;1.65;;
74793;SDS011;63320;50.768;6.724;2023-07-29T11:34:47;7.53;;;2.10;;
74793;SDS011;63320;50.768;6.724;2023-07-29T11:37:14;3.83;;;1.83;;
74793;SDS011;63320;50.768;6.724;2023-07-29T11:39:39;7.57;;;1.95;;
74793;SDS011;63320;50.768;6.724;2023-07-29T11:42:05;10.30;;;2.10;;
74793;SDS011;63320;50.768;6.724;2023-07-29T11:44:31;4.28;;;1.70;;
74793;SDS011;63320;50.768;6.724;2023-07-29T11:46:56;6.15;;;1.70;;
74793;SDS011;63320;50.768;6.724;2023-07-29T11:49:21;3.70;;;1.65;;
74793;SDS011;63320;50.768;6.724;2023-07-29T11:51:47;4.95;;;1.50;;
74793;SDS011;63320;50.768;6.724;2023-07-29T11:54:13;9.45;;;2.05;;
74793;SDS011;63320;50.768;6.724;2023-07-29T11:56:40;6.13;;;1.95;;
74793;SDS011;63320;50.768;6.724;2023-07-29T11:59:05;4.15;;;1.90;;
74793;SDS011;63320;50.768;6.724;2023-07-29T12:01:31;4.10;;;1.40;;
74793;SDS011;63320;50.768;6.724;2023-07-29T12:03:58;3.67;;;1.27;;
74793;SDS011;63320;50.768;6.724;2023-07-29T12:06:24;3.28;;;1.40;;
74793;SDS011;63320;50.768;6.724;2023-07-29T12:08:50;4.10;;;1.38;;
74793;SDS011;63320;50.768;6.724;2023-07-29T12:11:17;4.40;;;1.80;;
74793;SDS011;63320;50.768;6.724;2023-07-29T12:13:43;4.10;;;1.83;;
74793;SDS011;63320;50.768;6.724;2023-07-29T12:16:08;4.90;;;1.35;;
74793;SDS011;63320;50.768;6.724;2023-07-29T12:18:34;4.63;;;1.42;;
74793;SDS011;63320;50.768;6.724;2023-07-29T12:21:01;2.92;;;1.30;;
74793;SDS011;63320;50.768;6.724;2023-07-29T12:23:27;3.25;;;1.30;;
74793;SDS011;63320;50.768;6.724;2023-07-29T12:25:56;3.50;;;1.60;;
74793;SDS011;63320;50.768;6.724;2023-07-29T12:28:24;8.63;;;1.70;;
74793;SDS011;63320;50.768;6.724;2023-07-29T12:30:52;6.90;;;1.38;;
74793;SDS011;63320;50.768;6.724;2023-07-29T12:33:29;3.15;;;1.25;;
74793;SDS011;63320;50.768;6.724;2023-07-29T12:35:55;3.70;;;1.42;;
74793;SDS011;63320;50.768;6.724;2023-07-29T12:38:20;2.58;;;1.15;;
74793;SDS011;63320;50.768;6.724;2023-07-29T12:40:46;4.35;;;1.38;;
74793;SDS011;63320;50.768;6.724;2023-07-29T12:43:11;3.05;;;1.20;;
74793;SDS011;63320;50.768;6.724;2023-07-29T12:45:38;3.97;;;1.20;;
74793;SDS011;63320;50.768;6.724;2023-07-29T12:48:03;2.50;;;1.00;;
74793;SDS011;63320;50.768;6.724;2023-07-29T12:50:29;2.22;;;1.00;;
74793;SDS011;63320;50.768;6.724;2023-07-29T12:52:54;2.38;;;1.08;;
74793;SDS011;63320;50.768;6.724;2023-07-29T12:55:19;3.33;;;1.25;;
74793;SDS011;63320;50.768;6.724;2023-07-29T12:57:45;2.22;;;1.10;;
74793;SDS011;63320;50.768;6.724;2023-07-29T13:00:10;2.63;;;1.02;;
74793;SDS011;63320;50.768;6.724;2023-07-29T13:02:38;2.53;;;1.20;;
74793;SDS011;63320;50.768;6.724;2023-07-29T13:05:03;2.55;;;1.05;;
74793;SDS011;63320;50.768;6.724;2023-07-29T13:07:29;2.95;;;1.30;;
74793;SDS011;63320;50.768;6.724;2023-07-29T13:09:55;2.83;;;1.20;;
74793;SDS011;63320;50.768;6.724;2023-07-29T13:12:20;2.38;;;0.90;;
74793;SDS011;63320;50.768;6.724;2023-07-29T13:14:45;2.88;;;1.17;;
74793;SDS011;63320;50.768;6.724;2023-07-29T13:17:11;2.90;;;1.17;;
74793;SDS011;63320;50.768;6.724;2023-07-29T13:19:37;4.38;;;1.70;;
74793;SDS011;63320;50.768;6.724;2023-07-29T13:22:03;3.10;;;1.20;;
74793;SDS011;63320;50.768;6.724;2023-07-29T13:24:28;3.13;;;1.13;;
74793;SDS011;63320;50.768;6.724;2023-07-29T13:26:54;2.63;;;1.30;;
74793;SDS011;63320;50.768;6.724;2023-07-29T13:29:19;3.45;;;1.70;;
74793;SDS011;63320;50.768;6.724;2023-07-29T13:31:44;4.65;;;1.67;;
74793;SDS011;63320;50.768;6.724;2023-07-29T13:34:10;5.88;;;2.00;;
74793;SDS011;63320;50.768;6.724;2023-07-29T13:36:36;4.30;;;1.65;;
74793;SDS011;63320;50.768;6.724;2023-07-29T13:39:02;6.20;;;2.22;;
74793;SDS011;63320;50.768;6.724;2023-07-29T13:41:27;12.00;;;2.30;;
74793;SDS011;63320;50.768;6.724;2023-07-29T13:43:52;7.97;;;2.30;;
74793;SDS011;63320;50.768;6.724;2023-07-29T13:46:18;7.28;;;2.50;;
74793;SDS011;63320;50.768;6.724;2023-07-29T13:48:43;7.57;;;2.22;;
74793;SDS011;63320;50.768;6.724;2023-07-29T13:51:08;6.20;;;2.47;;
74793;SDS011;63320;50.768;6.724;2023-07-29T13:53:35;7.32;;;2.60;;
74793;SDS011;63320;50.768;6.724;2023-07-29T13:56:00;5.50;;;2.05;;
74793;SDS011;63320;50.768;6.724;2023-07-29T13:58:26;5.03;;;2.40;;
74793;SDS011;63320;50.768;6.724;2023-07-29T14:00:51;5.50;;;2.25;;
74793;SDS011;63320;50.768;6.724;2023-07-29T14:03:16;7.00;;;2.30;;
74793;SDS011;63320;50.768;6.724;2023-07-29T14:05:42;6.38;;;2.40;;
74793;SDS011;63320;50.768;6.724;2023-07-29T14:08:07;6.30;;;2.42;;
74793;SDS011;63320;50.768;6.724;2023-07-29T14:10:34;5.65;;;2.15;;
74793;SDS011;63320;50.768;6.724;2023-07-29T14:12:59;9.23;;;2.00;;
74793;SDS011;63320;50.768;6.724;2023-07-29T14:15:24;5.13;;;1.90;;
74793;SDS011;63320;50.768;6.724;2023-07-29T14:17:50;5.28;;;1.63;;
74793;SDS011;63320;50.768;6.724;2023-07-29T14:20:15;7.45;;;2.30;;
74793;SDS011;63320;50.768;6.724;2023-07-29T14:22:40;13.27;;;2.63;;
74793;SDS011;63320;50.768;6.724;2023-07-29T14:25:06;7.88;;;2.83;;
74793;SDS011;63320;50.768;6.724;2023-07-29T14:27:33;6.80;;;2.80;;
74793;SDS011;63320;50.768;6.724;2023-07-29T14:29:59;5.53;;;2.67;;
74793;SDS011;63320;50.768;6.724;2023-07-29T14:32:24;5.68;;;2.38;;
74793;SDS011;63320;50.768;6.724;2023-07-29T14:34:49;5.25;;;2.20;;
74793;SDS011;63320;50.768;6.724;2023-07-29T14:37:15;6.60;;;2.30;;
74793;SDS011;63320;50.768;6.724;2023-07-29T14:39:40;5.90;;;1.90;;
74793;SDS011;63320;50.768;6.724;2023-07-29T14:42:06;3.83;;;2.00;;
74793;SDS011;63320;50.768;6.724;2023-07-29T14:44:32;4.93;;;2.15;;
74793;SDS011;63320;50.768;6.724;2023-07-29T14:46:58;4.47;;;2.33;;